Time;durP1;ratioP1;P1;durP2;ratioP2;P2;SDS_P1;SDS_P2;PMS_P1;PMS_P2;Temp;Humidity;BMP_temperature;BMP_pressure;BME280_temperature;BME280_humidity;BME280_pressure;Samples;Min_cycle;Max_cycle;Signal;HPM_P1;HPM_P2
2021/10/19 00:00:29;;;;;;;307.52;65.07;;;;;;;5.13;100.00;96684.25;1026207;28;20109;-70
2021/10/19 00:00:59;;;;;;;300.77;63.05;;;;;;;5.16;100.00;96683.84;1026389;28;20266;-70
2021/10/19 00:01:30;;;;;;;291.77;62.85;;;;;;;5.13;100.00;96670.41;1026616;28;20424;-69
2021/10/19 00:02:00;;;;;;;328.63;67.88;;;;;;;5.20;100.00;96681.63;1030785;28;20117;-69
2021/10/19 00:02:31;;;;;;;411.48;76.53;;;;;;;5.10;100.00;96665.66;1034298;28;20396;-69
2021/10/19 00:03:02;;;;;;;359.15;70.95;;;;;;;5.16;100.00;96676.03;1026575;28;20680;-69
2021/10/19 00:03:32;;;;;;;305.23;63.35;;;;;;;5.17;100.00;96682.84;1016838;29;20446;-69
2021/10/19 00:04:03;;;;;;;221.43;55.60;;;;;;;5.18;100.00;96683.63;1018531;29;20051;-70
2021/10/19 00:04:33;;;;;;;344.48;70.40;;;;;;;5.18;100.00;96678.41;1018689;29;20035;-69
2021/10/19 00:05:05;;;;;;;310.42;63.90;;;;;;;5.13;100.00;96670.41;1022450;29;20367;-68
2021/10/19 00:05:35;;;;;;;333.45;67.57;;;;;;;5.18;100.00;96673.22;1018402;29;20508;-69
2021/10/19 00:06:06;;;;;;;298.10;61.22;;;;;;;5.19;100.00;96680.00;1026531;28;20263;-69
2021/10/19 00:06:36;;;;;;;167.55;52.15;;;;;;;5.18;100.00;96671.41;1018294;29;20031;-69
2021/10/19 00:07:06;;;;;;;265.40;59.20;;;;;;;5.19;100.00;96682.63;1018467;29;20079;-69
2021/10/19 00:07:37;;;;;;;222.85;53.78;;;;;;;5.16;100.00;96683.03;1018648;29;20036;-70
2021/10/19 00:08:07;;;;;;;207.02;55.15;;;;;;;5.13;100.00;96670.41;1017944;28;20171;-70
2021/10/19 00:08:38;;;;;;;216.43;58.05;;;;;;;5.14;100.00;96672.03;1022461;28;20027;-70
2021/10/19 00:09:08;;;;;;;231.32;58.15;;;;;;;5.11;100.00;96682.84;1022368;29;20106;-69
2021/10/19 00:09:39;;;;;;;246.48;56.00;;;;;;;5.10;100.00;96681.25;1018535;29;20036;-69
2021/10/19 00:10:10;;;;;;;268.30;60.13;;;;;;;5.10;100.00;96673.47;1018601;29;20023;-69
2021/10/19 00:10:41;;;;;;;279.13;63.22;;;;;;;5.10;100.00;96678.66;1018331;29;20437;-69
2021/10/19 00:11:11;;;;;;;229.43;55.30;;;;;;;5.05;100.00;96678.47;1018603;29;20260;-69
2021/10/19 00:11:42;;;;;;;236.30;58.28;;;;;;;5.00;100.00;96668.69;1014769;29;20559;-70
2021/10/19 00:12:12;;;;;;;254.63;59.50;;;;;;;5.10;100.00;96681.25;1018334;29;20028;-69
2021/10/19 00:12:43;;;;;;;321.00;62.60;;;;;;;5.05;100.00;96683.66;1022439;29;20037;-70
2021/10/19 00:13:13;;;;;;;200.18;50.08;;;;;;;5.04;100.00;96672.47;1022405;29;20035;-69
2021/10/19 00:13:44;;;;;;;279.52;60.70;;;;;;;5.09;100.00;96680.44;1022521;29;20513;-69
2021/10/19 00:14:14;;;;;;;281.38;60.97;;;;;;;5.06;100.00;96678.25;1022417;29;20031;-69
2021/10/19 00:14:45;;;;;;;313.35;66.05;;;;;;;4.92;100.00;96667.06;1018475;29;20510;-69
2021/10/19 00:15:15;;;;;;;318.02;66.43;;;;;;;4.99;100.00;96684.47;1014813;29;20040;-68
2021/10/19 00:15:46;;;;;;;303.90;64.32;;;;;;;4.97;100.00;96682.88;1022546;28;20540;-69
2021/10/19 00:16:16;;;;;;;339.25;69.63;;;;;;;4.98;100.00;96678.47;1018348;29;20032;-69
2021/10/19 00:16:47;;;;;;;367.90;68.95;;;;;;;5.03;100.00;96688.25;1022584;28;20035;-69
2021/10/19 00:17:17;;;;;;;286.02;59.80;;;;;;;5.03;100.00;96685.66;1030593;28;20026;-70
2021/10/19 00:17:48;;;;;;;337.83;65.30;;;;;;;5.04;100.00;96692.47;1022366;29;20047;-69
2021/10/19 00:18:19;;;;;;;301.27;61.20;;;;;;;5.02;100.00;96684.06;1023496;28;20050;-69
2021/10/19 00:18:50;;;;;;;176.77;54.35;;;;;;;5.00;100.00;96679.06;1022977;29;20270;-69
2021/10/19 00:19:20;;;;;;;272.55;58.67;;;;;;;5.02;100.00;96684.84;1023596;28;20087;-69
2021/10/19 00:19:50;;;;;;;273.83;61.97;;;;;;;4.99;100.00;96687.06;1022986;29;20031;-69
2021/10/19 00:20:21;;;;;;;179.25;53.30;;;;;;;5.02;100.00;96687.47;1019385;29;20417;-69
2021/10/19 00:20:51;;;;;;;246.55;58.35;;;;;;;5.03;100.00;96690.84;1023229;28;20429;-69
2021/10/19 00:21:22;;;;;;;253.82;59.55;;;;;;;5.03;100.00;96683.06;1027031;28;20030;-69
2021/10/19 00:21:52;;;;;;;216.40;55.85;;;;;;;5.06;100.00;96686.03;1023080;28;20031;-69
2021/10/19 00:22:23;;;;;;;297.00;61.08;;;;;;;5.06;100.00;96695.66;1023354;29;20070;-69
2021/10/19 00:22:53;;;;;;;274.98;59.70;;;;;;;4.99;100.00;96687.88;1019212;29;20030;-70
2021/10/19 00:23:23;;;;;;;309.73;66.43;;;;;;;4.99;100.00;96689.66;1022974;29;20519;-70
2021/10/19 00:23:54;;;;;;;317.58;62.75;;;;;;;4.98;100.00;96694.06;1019228;29;20036;-69
2021/10/19 00:24:24;;;;;;;230.68;56.33;;;;;;;4.99;100.00;96689.66;1030963;28;20463;-69
2021/10/19 00:24:55;;;;;;;227.00;56.40;;;;;;;4.98;100.00;96694.06;1031303;28;20122;-69
2021/10/19 00:25:25;;;;;;;351.52;58.72;;;;;;;4.99;100.00;96692.28;1022893;28;20035;-68
2021/10/19 00:25:56;;;;;;;326.23;63.50;;;;;;;4.94;100.00;96696.28;1027240;28;20022;-71
2021/10/19 00:26:26;;;;;;;283.77;64.15;;;;;;;4.93;100.00;96692.09;1027360;28;20095;-68
2021/10/19 00:26:57;;;;;;;431.90;72.22;;;;;;;4.93;100.00;96694.69;1023334;28;20027;-70
2021/10/19 00:27:27;;;;;;;378.00;73.22;;;;;;;4.93;100.00;96692.09;1027056;28;20050;-69
2021/10/19 00:27:57;;;;;;;372.13;73.00;;;;;;;4.93;100.00;96692.09;1018874;29;20444;-69
2021/10/19 00:28:28;;;;;;;390.90;71.97;;;;;;;4.90;100.00;96692.50;1023048;28;20031;-69
2021/10/19 00:28:58;;;;;;;394.95;68.63;;;;;;;4.87;100.00;96692.91;1022990;29;20034;-70
2021/10/19 00:29:29;;;;;;;390.42;71.82;;;;;;;4.87;100.00;96692.91;1022961;28;20039;-69
2021/10/19 00:30:00;;;;;;;319.00;64.93;;;;;;;4.81;100.00;96693.69;1027024;28;20045;-69
2021/10/19 00:30:31;;;;;;;289.08;61.30;;;;;;;4.79;100.00;96690.50;1027153;28;20018;-69
2021/10/19 00:31:01;;;;;;;362.15;71.15;;;;;;;4.78;100.00;96688.09;1023128;29;20123;-69
2021/10/19 00:31:32;;;;;;;339.10;64.80;;;;;;;4.76;100.00;96688.28;1022963;28;20370;-69
2021/10/19 00:32:02;;;;;;;340.58;65.22;;;;;;;4.76;100.00;96693.50;1019374;29;20023;-69
2021/10/19 00:32:33;;;;;;;309.30;66.03;;;;;;;4.75;100.00;96699.69;1019296;28;20399;-69
2021/10/19 00:33:03;;;;;;;232.35;59.30;;;;;;;4.70;100.00;96686.53;1029066;28;20011;-68
2021/10/19 00:33:34;;;;;;;278.45;63.17;;;;;;;4.76;100.00;96696.09;1027077;28;20034;-69
2021/10/19 00:34:04;;;;;;;240.10;54.03;;;;;;;4.76;100.00;96690.91;1027182;28;20010;-68
2021/10/19 00:34:35;;;;;;;273.80;62.38;;;;;;;4.71;100.00;96698.50;1031354;28;20015;-70
2021/10/19 00:35:06;;;;;;;253.60;60.33;;;;;;;4.64;100.00;96700.31;1027077;28;20026;-70
2021/10/19 00:35:36;;;;;;;278.85;61.08;;;;;;;4.59;100.00;96679.31;1023094;28;20031;-71
2021/10/19 00:36:07;;;;;;;272.75;65.32;;;;;;;4.60;100.00;96691.34;1023071;29;20259;-69
2021/10/19 00:36:37;;;;;;;261.10;62.40;;;;;;;4.61;100.00;96698.13;1027155;28;20030;-67
2021/10/19 00:37:07;;;;;;;229.50;57.72;;;;;;;4.63;100.00;96693.53;1027213;28;20023;-69
2021/10/19 00:37:38;;;;;;;292.15;64.82;;;;;;;4.52;100.00;96679.31;1031072;28;20624;-70
2021/10/19 00:38:08;;;;;;;205.00;55.75;;;;;;;4.60;100.00;96691.34;1026654;28;20035;-70
2021/10/19 00:38:39;;;;;;;237.30;59.67;;;;;;;4.60;100.00;96697.31;1021873;28;20039;-69
2021/10/19 00:39:09;;;;;;;235.15;60.38;;;;;;;4.57;100.00;96700.31;1022776;29;20023;-70
2021/10/19 00:39:40;;;;;;;307.40;64.53;;;;;;;4.52;100.00;96694.13;1023093;28;20015;-70
2021/10/19 00:40:10;;;;;;;248.02;60.17;;;;;;;4.47;100.00;96694.72;1030803;28;20022;-68
2021/10/19 00:40:41;;;;;;;241.45;58.85;;;;;;;4.44;100.00;96693.31;1023244;28;20465;-69
2021/10/19 00:41:12;;;;;;;246.20;59.03;;;;;;;4.43;100.00;96696.94;1027161;28;20026;-68
2021/10/19 00:41:42;;;;;;;260.13;62.80;;;;;;;4.42;100.00;96699.72;1022048;29;20023;-68
2021/10/19 00:42:13;;;;;;;253.00;60.40;;;;;;;4.45;100.00;96700.09;1026773;28;20069;-69
2021/10/19 00:42:43;;;;;;;256.77;61.22;;;;;;;4.41;100.00;96700.72;1023358;29;20028;-68
2021/10/19 00:43:14;;;;;;;249.90;60.55;;;;;;;4.46;100.00;96701.72;1031292;28;20019;-69
2021/10/19 00:43:45;;;;;;;245.68;59.78;;;;;;;4.38;100.00;96698.50;1035392;28;20014;-68
2021/10/19 00:44:16;;;;;;;297.17;61.67;;;;;;;4.42;100.00;96699.72;1031374;28;20022;-69
2021/10/19 00:44:46;;;;;;;266.92;59.03;;;;;;;4.41;100.00;96704.13;1031249;28;20276;-68
2021/10/19 00:45:17;;;;;;;228.85;57.17;;;;;;;4.40;100.00;96699.13;1023545;29;20023;-69
2021/10/19 00:45:47;;;;;;;316.65;63.20;;;;;;;4.21;100.00;96678.13;1023250;29;20023;-70
2021/10/19 00:46:17;;;;;;;384.95;72.82;;;;;;;4.40;100.00;96706.91;1027165;28;20023;-70
2021/10/19 00:46:48;;;;;;;350.95;71.20;;;;;;;4.41;100.00;96705.91;1031488;28;20029;-69
2021/10/19 00:47:20;;;;;;;258.98;57.15;;;;;;;4.41;100.00;96703.31;1027205;28;20030;-69
2021/10/19 00:47:51;;;;;;;302.17;63.45;;;;;;;4.41;100.00;96709.31;1022633;28;20074;-69
2021/10/19 00:48:25;;;;;;;366.88;69.68;;;;;;;4.40;100.00;96707.72;1021607;28;20272;-69
2021/10/19 00:48:55;;;;;;;299.20;64.43;;;;;;;4.41;100.00;96701.50;1018315;29;20282;-69
2021/10/19 00:49:26;;;;;;;305.23;65.07;;;;;;;4.42;100.00;96710.91;1017896;29;20801;-69
2021/10/19 00:49:56;;;;;;;339.35;64.93;;;;;;;4.44;100.00;96705.53;1019924;29;20038;-69
2021/10/19 00:50:27;;;;;;;394.92;72.40;;;;;;;4.39;100.00;96695.72;1018478;29;20044;-69
2021/10/19 00:50:57;;;;;;;299.05;62.50;;;;;;;4.46;100.00;96706.09;1019405;29;20529;-70
2021/10/19 00:51:28;;;;;;;335.38;68.72;;;;;;;4.45;100.00;96700.09;1019354;29;20091;-70
2021/10/19 00:51:59;;;;;;;542.13;86.65;;;;;;;4.42;100.00;96705.69;1023378;28;20485;-70
2021/10/19 00:52:30;;;;;;;469.02;74.90;;;;;;;4.34;100.00;96687.72;1027404;28;20170;-68
2021/10/19 00:53:00;;;;;;;328.15;62.33;;;;;;;4.41;100.00;96700.72;1023300;29;20266;-70
2021/10/19 00:53:31;;;;;;;350.00;63.88;;;;;;;4.44;100.00;96697.72;1019454;29;20034;-70
2021/10/19 00:54:01;;;;;;;345.75;70.22;;;;;;;4.45;100.00;96699.31;1019353;29;20099;-70
2021/10/19 00:54:32;;;;;;;377.42;67.80;;;;;;;4.38;100.00;96688.91;1019244;29;20044;-69
2021/10/19 00:55:03;;;;;;;432.67;75.15;;;;;;;4.36;100.00;96685.75;1023462;29;20113;-69
2021/10/19 00:55:34;;;;;;;536.50;80.95;;;;;;;4.39;100.00;96694.91;1023494;28;20034;-68
2021/10/19 00:56:05;;;;;;;597.30;89.82;;;;;;;4.35;100.00;96694.50;1023253;29;20460;-68
2021/10/19 00:56:37;;;;;;;540.75;80.15;;;;;;;4.36;100.00;96696.13;1019371;29;20039;-69
2021/10/19 00:57:07;;;;;;;591.67;89.97;;;;;;;4.32;100.00;96688.91;1019201;29;21119;-68
2021/10/19 00:57:38;;;;;;;531.13;78.80;;;;;;;4.35;100.00;96686.72;1023488;29;20274;-69
2021/10/19 00:58:08;;;;;;;571.42;86.32;;;;;;;4.34;100.00;96700.72;1018880;29;20087;-70
2021/10/19 00:58:39;;;;;;;344.17;62.80;;;;;;;4.36;100.00;96698.72;1023139;29;20114;-70
2021/10/19 00:59:10;;;;;;;438.30;72.70;;;;;;;4.38;100.00;96690.72;1023231;29;20027;-69
2021/10/19 00:59:43;;;;;;;400.55;73.65;;;;;;;4.39;100.00;96700.09;1027408;28;20042;-70
2021/10/19 01:00:13;;;;;;;468.77;79.13;;;;;;;4.42;100.00;96691.91;1027520;28;20038;-69
2021/10/19 01:00:44;;;;;;;300.05;58.22;;;;;;;4.42;100.00;96689.31;1027138;28;20345;-69
2021/10/19 01:01:14;;;;;;;463.88;71.43;;;;;;;4.43;100.00;96691.72;1027828;28;20023;-70
2021/10/19 01:01:45;;;;;;;483.70;77.25;;;;;;;4.41;100.00;96693.72;1027842;28;20043;-70
2021/10/19 01:02:15;;;;;;;412.15;71.60;;;;;;;4.43;100.00;96689.13;1031350;28;20042;-70
2021/10/19 01:02:47;;;;;;;563.75;79.68;;;;;;;4.40;100.00;96686.94;1035005;28;20538;-71
2021/10/19 01:03:17;;;;;;;567.63;89.30;;;;;;;4.40;100.00;96692.13;1027695;28;20039;-70
2021/10/19 01:03:48;;;;;;;489.13;79.38;;;;;;;4.42;100.00;96689.31;1027196;28;20285;-70
2021/10/19 01:04:18;;;;;;;468.67;73.20;;;;;;;4.43;100.00;96686.53;1027374;28;20042;-70
2021/10/19 01:04:49;;;;;;;459.23;75.13;;;;;;;4.43;100.00;96678.75;1019961;28;20036;-69
2021/10/19 01:05:20;;;;;;;390.45;66.95;;;;;;;4.47;100.00;96681.75;1023414;29;20035;-71
2021/10/19 01:05:50;;;;;;;320.48;65.63;;;;;;;4.46;100.00;96686.13;1023516;29;20086;-71
2021/10/19 01:06:21;;;;;;;388.42;68.93;;;;;;;4.34;100.00;96661.75;1019436;28;20039;-69
2021/10/19 01:06:51;;;;;;;440.98;70.07;;;;;;;4.47;100.00;96679.13;1023269;28;20070;-69
2021/10/19 01:07:22;;;;;;;467.27;64.82;;;;;;;4.47;100.00;96679.94;1027742;28;20395;-70
2021/10/19 01:07:52;;;;;;;416.73;62.70;;;;;;;4.41;100.00;96667.72;1022686;29;20038;-69
2021/10/19 01:08:22;;;;;;;391.88;55.10;;;;;;;4.46;100.00;96678.34;1022893;28;20035;-71
2021/10/19 01:08:53;;;;;;;497.45;75.22;;;;;;;4.35;100.00;96660.75;1027345;28;20090;-70
2021/10/19 01:09:23;;;;;;;526.90;71.50;;;;;;;4.40;100.00;96671.34;1022917;29;20023;-71
2021/10/19 01:09:54;;;;;;;453.80;65.32;;;;;;;4.36;100.00;96672.75;1023527;29;20042;-68
2021/10/19 01:10:24;;;;;;;394.02;57.75;;;;;;;4.36;100.00;96670.16;1019300;29;20027;-70
2021/10/19 01:10:55;;;;;;;393.88;62.00;;;;;;;4.36;100.00;96670.16;1019193;29;20027;-69
2021/10/19 01:11:26;;;;;;;356.52;61.33;;;;;;;4.35;100.00;96667.72;1023263;29;20485;-71
2021/10/19 01:11:56;;;;;;;452.13;73.88;;;;;;;4.33;100.00;96669.75;1019398;29;20421;-71
2021/10/19 01:12:26;;;;;;;479.13;76.78;;;;;;;4.33;100.00;96661.97;1023439;28;20027;-70
2021/10/19 01:12:57;;;;;;;255.25;54.08;;;;;;;4.34;100.00;96669.53;1027794;28;20038;-70
2021/10/19 01:13:27;;;;;;;192.10;47.90;;;;;;;4.33;100.00;96669.75;1031127;28;20018;-68
2021/10/19 01:13:58;;;;;;;357.75;58.17;;;;;;;4.33;100.00;96665.34;1019457;29;20023;-71
2021/10/19 01:14:28;;;;;;;243.00;51.22;;;;;;;4.30;100.00;96675.34;1015327;29;20390;-70
2021/10/19 01:14:59;;;;;;;265.85;52.45;;;;;;;4.28;100.00;96665.13;1023257;29;20114;-71
2021/10/19 01:15:33;;;;;;;332.67;59.92;;;;;;;4.26;100.00;96669.75;1023567;28;20031;-70
2021/10/19 01:16:10;;;;;;;344.25;59.03;;;;;;;4.21;100.00;96664.34;1027045;28;20027;-70
2021/10/19 01:16:40;;;;;;;313.20;56.97;;;;;;;4.19;100.00;96663.72;1023126;29;20282;-70
2021/10/19 01:17:11;;;;;;;210.27;50.00;;;;;;;4.16;100.00;96661.56;1023604;29;20334;-70
2021/10/19 01:17:46;;;;;;;349.65;63.05;;;;;;;4.10;100.00;96655.34;1023578;28;20037;-66
2021/10/19 01:18:17;;;;;;;211.15;51.85;;;;;;;4.13;100.00;96667.16;1015822;29;20279;-70
2021/10/19 01:18:47;;;;;;;169.07;49.10;;;;;;;4.11;100.00;96666.53;1019249;29;20801;-71
2021/10/19 01:19:22;;;;;;;123.03;43.22;;;;;;;4.09;100.00;96664.16;1015895;29;20268;-71
2021/10/19 01:19:52;;;;;;;178.25;52.90;;;;;;;4.09;100.00;96665.91;1023913;28;20035;-71
2021/10/19 01:20:27;;;;;;;147.52;46.80;;;;;;;4.08;100.00;96669.53;1026889;28;20269;-73
2021/10/19 01:20:57;;;;;;;186.88;55.22;;;;;;;3.99;100.00;96664.53;1028608;28;20086;-70
2021/10/19 01:21:28;;;;;;;151.52;52.20;;;;;;;4.05;100.00;96668.09;1024126;28;20950;-71
2021/10/19 01:22:00;;;;;;;178.60;55.00;;;;;;;4.03;100.00;96672.72;1031208;28;20365;-70
2021/10/19 01:22:30;;;;;;;121.22;48.28;;;;;;;4.01;100.00;96675.50;1027476;28;20038;-71
2021/10/19 01:23:01;;;;;;;129.48;49.92;;;;;;;3.97;100.00;96676.91;1027340;28;20663;-71
2021/10/19 01:23:35;;;;;;;99.63;45.13;;;;;;;3.95;100.00;96676.28;1031119;28;20026;-71
2021/10/19 01:24:05;;;;;;;116.03;46.85;;;;;;;3.93;100.00;96675.69;1027608;28;20360;-72
2021/10/19 01:24:36;;;;;;;82.25;38.72;;;;;;;3.91;100.00;96682.88;1027246;28;20687;-71
2021/10/19 01:25:06;;;;;;;95.78;42.88;;;;;;;3.86;100.00;96674.88;1027308;28;20026;-71
2021/10/19 01:25:37;;;;;;;82.82;39.95;;;;;;;3.88;100.00;96679.88;1015579;29;20035;-72
2021/10/19 01:26:08;;;;;;;75.13;38.15;;;;;;;3.85;100.00;96672.47;1019299;29;20035;-71
2021/10/19 01:26:38;;;;;;;94.63;43.22;;;;;;;3.82;100.00;96676.25;1023353;29;20031;-72
2021/10/19 01:27:09;;;;;;;58.90;35.25;;;;;;;3.74;100.00;96668.66;1023497;28;20660;-71
2021/10/19 01:28:00;;;;;;;57.40;34.67;;;;;;;3.78;100.00;96678.44;1030886;28;20026;-71
2021/10/19 01:28:31;;;;;;;62.53;35.53;;;;;;;3.80;100.00;96680.84;1022990;28;20322;-68
2021/10/19 01:29:01;;;;;;;77.43;38.72;;;;;;;3.77;100.00;96681.25;1015370;29;20035;-72
2021/10/19 01:29:32;;;;;;;73.53;38.08;;;;;;;3.77;100.00;96678.66;1018053;29;20562;-70
2021/10/19 01:30:02;;;;;;;93.05;42.47;;;;;;;3.68;100.00;96659.84;1015983;29;20031;-72
2021/10/19 01:30:38;;;;;;;80.47;38.65;;;;;;;3.76;100.00;96671.88;1023370;28;20106;-71
2021/10/19 01:31:10;;;;;;;76.65;39.25;;;;;;;3.75;100.00;96672.84;1027076;28;20398;-72
2021/10/19 01:31:47;;;;;;;95.94;42.72;;;;;;;3.72;100.00;96668.88;1024252;28;20263;-69
2021/10/19 01:32:18;;;;;;;75.63;37.58;;;;;;;3.67;100.00;96665.25;1023108;29;20489;-72
2021/10/19 01:32:49;;;;;;;72.88;37.42;;;;;;;3.75;100.00;96678.03;1023155;29;20271;-72
2021/10/19 01:33:19;;;;;;;72.72;38.55;;;;;;;3.75;100.00;96673.63;1023491;29;20023;-72
2021/10/19 01:33:50;;;;;;;92.20;43.38;;;;;;;3.72;100.00;96668.03;1022987;28;20406;-71
2021/10/19 01:34:20;;;;;;;90.97;42.05;;;;;;;3.68;100.00;96659.06;1019324;29;20397;-71
2021/10/19 01:34:51;;;;;;;73.43;39.63;;;;;;;3.73;100.00;96670.47;1015553;29;20470;-71
2021/10/19 01:35:50;;;;;;;65.82;38.17;;;;;;;3.76;100.00;96674.47;1019271;29;20030;-72
2021/10/19 01:36:21;;;;;;;64.13;35.25;;;;;;;3.74;100.00;96671.25;1014799;29;20028;-72
2021/10/19 01:36:51;;;;;;;68.18;38.08;;;;;;;3.76;100.00;96674.47;1031051;28;20805;-72
2021/10/19 01:37:22;;;;;;;57.83;35.38;;;;;;;3.76;100.00;96671.88;1027328;28;20543;-70
2021/10/19 01:37:52;;;;;;;57.13;34.83;;;;;;;3.80;100.00;96675.66;1022460;29;20034;-71
2021/10/19 01:38:27;;;;;;;67.13;38.55;;;;;;;3.77;100.00;96665.69;1019137;29;20096;-73
2021/10/19 01:38:57;;;;;;;60.20;38.06;;;;;;;3.77;100.00;96670.88;1019968;29;20020;-71
2021/10/19 01:39:28;;;;;;;79.28;41.13;;;;;;;3.76;100.00;96669.28;1023106;29;20033;-71
2021/10/19 01:39:58;;;;;;;87.18;42.65;;;;;;;3.73;100.00;96674.84;1020492;28;20051;-71
2021/10/19 01:40:28;;;;;;;58.97;36.17;;;;;;;3.72;100.00;96673.22;1026899;28;20022;-72
2021/10/19 01:40:59;;;;;;;65.90;38.83;;;;;;;3.69;100.00;96671.84;1027240;28;20034;-70
2021/10/19 01:41:29;;;;;;;50.00;32.88;;;;;;;3.69;100.00;96668.44;1026971;28;20015;-72
2021/10/19 01:42:00;;;;;;;59.53;35.45;;;;;;;3.73;100.00;96662.69;1019181;29;20020;-71
2021/10/19 01:42:34;;;;;;;64.03;34.30;;;;;;;3.69;100.00;96671.03;1019009;29;20031;-71
2021/10/19 01:43:15;;;;;;;68.47;38.05;;;;;;;3.66;100.00;96667.06;1026544;28;20031;-72
2021/10/19 01:43:46;;;;;;;55.45;32.35;;;;;;;3.68;100.00;96669.44;1022685;28;20879;-71
2021/10/19 01:44:17;;;;;;;60.25;34.90;;;;;;;3.67;100.00;96660.06;1026265;28;20018;-71
2021/10/19 01:44:47;;;;;;;53.45;33.88;;;;;;;3.64;100.00;96661.25;1025215;28;20266;-69
2021/10/19 01:45:18;;;;;;;52.72;32.22;;;;;;;3.63;100.00;96664.06;1021069;28;20027;-71
2021/10/19 01:45:49;;;;;;;57.58;33.55;;;;;;;3.62;100.00;96652.03;1022796;29;20035;-71
2021/10/19 01:46:21;;;;;;;54.90;33.80;;;;;;;3.68;100.00;96669.44;1016107;29;20418;-71
2021/10/19 01:46:51;;;;;;;64.43;36.97;;;;;;;3.66;100.00;96666.25;1022501;28;20043;-71
2021/10/19 01:47:22;;;;;;;65.50;37.60;;;;;;;3.69;100.00;96663.25;1027134;28;20639;-71
2021/10/19 01:47:52;;;;;;;52.92;33.38;;;;;;;3.68;100.00;96669.44;1025804;28;20053;-70
2021/10/19 01:48:23;;;;;;;55.03;33.70;;;;;;;3.67;100.00;96667.84;1034616;28;20030;-73
2021/10/19 01:48:56;;;;;;;60.88;37.00;;;;;;;3.66;100.00;96655.88;1026528;28;20023;-71
2021/10/19 01:49:26;;;;;;;55.97;33.30;;;;;;;3.66;100.00;96666.25;1026829;28;20034;-71
2021/10/19 01:49:57;;;;;;;51.45;33.20;;;;;;;3.66;100.00;96658.47;1026913;28;20258;-71
2021/10/19 01:50:27;;;;;;;58.53;35.38;;;;;;;3.61;100.00;96655.66;1019531;28;20030;-72
2021/10/19 01:50:58;;;;;;;56.33;33.50;;;;;;;3.68;100.00;96659.84;1018937;29;20028;-71
2021/10/19 01:51:28;;;;;;;58.55;35.65;;;;;;;3.70;100.00;96659.66;1018894;29;20031;-71
2021/10/19 01:51:58;;;;;;;51.20;34.05;;;;;;;3.71;100.00;96658.66;1022681;28;20038;-70
2021/10/19 01:52:29;;;;;;;55.70;35.03;;;;;;;3.72;100.00;96652.47;1031072;28;20049;-72
2021/10/19 01:52:59;;;;;;;53.13;34.22;;;;;;;3.72;100.00;96653.28;1034627;28;20594;-71
2021/10/19 01:53:30;;;;;;;58.50;36.22;;;;;;;3.64;100.00;96644.88;1030783;28;20058;-71
2021/10/19 01:54:00;;;;;;;54.08;34.05;;;;;;;3.76;100.00;96658.91;1026808;28;20473;-69
2021/10/19 01:54:31;;;;;;;56.55;34.03;;;;;;;3.69;100.00;96648.50;1026545;28;20551;-69
2021/10/19 01:55:02;;;;;;;46.22;31.90;;;;;;;3.69;100.00;96642.47;1026833;28;20042;-70
2021/10/19 01:55:33;;;;;;;50.88;33.00;;;;;;;3.76;100.00;96648.50;1026901;28;20097;-71
2021/10/19 01:56:03;;;;;;;52.60;35.00;;;;;;;3.80;100.00;96654.91;1018789;29;20294;-71
2021/10/19 01:56:34;;;;;;;47.15;31.77;;;;;;;3.69;100.00;96637.28;1018843;29;20028;-72
2021/10/19 01:57:04;;;;;;;47.40;32.03;;;;;;;3.80;100.00;96654.09;1022788;28;20031;-71
2021/10/19 01:57:35;;;;;;;46.42;32.15;;;;;;;3.75;100.00;96647.69;1026651;28;20034;-72
2021/10/19 01:58:06;;;;;;;51.53;33.17;;;;;;;3.73;100.00;96649.69;1026078;28;20493;-70
2021/10/19 01:58:36;;;;;;;42.97;30.30;;;;;;;3.81;100.00;96655.69;1023013;28;20027;-71
2021/10/19 01:59:07;;;;;;;48.28;31.58;;;;;;;3.80;100.00;96654.91;1022799;29;20023;-71
2021/10/19 01:59:37;;;;;;;48.60;33.67;;;;;;;3.82;100.00;96658.09;1019083;29;20568;-71
2021/10/19 02:00:09;;;;;;;41.63;29.63;;;;;;;3.78;100.00;96646.50;1020790;28;20063;-69
2021/10/19 02:00:40;;;;;;;47.65;30.38;;;;;;;3.75;100.00;96642.50;1022837;29;20035;-71
2021/10/19 02:01:11;;;;;;;39.20;27.98;;;;;;;3.82;100.00;96658.09;1026610;28;20675;-72
2021/10/19 02:01:42;;;;;;;42.72;29.15;;;;;;;3.76;100.00;96643.31;1022781;29;20274;-70
2021/10/19 02:02:12;;;;;;;40.97;29.40;;;;;;;3.86;100.00;96659.31;1022727;29;20038;-72
2021/10/19 02:02:43;;;;;;;48.08;30.83;;;;;;;3.86;100.00;96659.31;1023078;28;20282;-72
2021/10/19 02:03:13;;;;;;;46.90;31.02;;;;;;;3.85;100.00;96657.69;1026878;28;20030;-72
2021/10/19 02:03:44;;;;;;;41.25;29.02;;;;;;;3.84;100.00;96657.91;1026980;28;20038;-70
2021/10/19 02:04:14;;;;;;;43.88;30.67;;;;;;;3.85;100.00;96665.47;1026687;28;20042;-73
2021/10/19 02:04:45;;;;;;;46.72;29.33;;;;;;;3.85;100.00;96662.88;1026946;28;20501;-73
2021/10/19 02:05:15;;;;;;;42.88;29.33;;;;;;;3.86;100.00;96654.13;1030817;28;20551;-73
2021/10/19 02:05:47;;;;;;;40.08;28.67;;;;;;;3.77;100.00;96645.72;1026731;28;20203;-72
2021/10/19 02:06:17;;;;;;;37.53;27.83;;;;;;;3.83;100.00;96658.91;1026946;28;20037;-72
2021/10/19 02:06:47;;;;;;;34.22;25.48;;;;;;;3.82;100.00;96662.47;1026771;28;20304;-73
2021/10/19 02:07:18;;;;;;;40.15;27.70;;;;;;;3.84;100.00;96655.31;1023165;28;20031;-73
2021/10/19 02:07:49;;;;;;;34.65;24.08;;;;;;;3.84;100.00;96656.09;1026634;28;20031;-72
2021/10/19 02:08:22;;;;;;;29.70;22.83;;;;;;;3.88;100.00;96653.91;1034580;28;20034;-73
2021/10/19 02:08:52;;;;;;;33.98;23.70;;;;;;;3.88;100.00;96654.72;1031264;28;20491;-72
2021/10/19 02:09:23;;;;;;;31.80;24.08;;;;;;;3.91;100.00;96661.31;1026678;28;20022;-74
2021/10/19 02:09:53;;;;;;;26.23;20.90;;;;;;;3.89;100.00;96658.91;1026861;28;20571;-73
2021/10/19 02:10:24;;;;;;;26.13;20.55;;;;;;;3.96;100.00;96658.94;1023403;28;20600;-74
2021/10/19 02:10:54;;;;;;;29.90;23.02;;;;;;;3.96;100.00;96654.53;1022869;28;20497;-72
2021/10/19 02:11:25;;;;;;;29.65;22.58;;;;;;;3.95;100.00;96652.91;1030924;28;20022;-72
2021/10/19 02:11:55;;;;;;;29.10;22.95;;;;;;;3.97;100.00;96655.34;1026905;28;20384;-73
2021/10/19 02:12:26;;;;;;;31.50;23.25;;;;;;;3.87;100.00;96644.53;1030904;28;20384;-72
2021/10/19 02:12:57;;;;;;;31.65;23.10;;;;;;;3.86;100.00;96642.94;1026943;28;20110;-73
2021/10/19 02:13:27;;;;;;;25.95;20.33;;;;;;;3.89;100.00;96658.91;1022709;28;20295;-73
2021/10/19 02:13:58;;;;;;;25.48;20.02;;;;;;;3.96;100.00;96659.72;1018799;29;20016;-73
2021/10/19 02:14:28;;;;;;;25.45;20.17;;;;;;;3.96;100.00;96662.31;1018984;28;20398;-72
2021/10/19 02:14:59;;;;;;;27.80;21.83;;;;;;;3.95;100.00;96659.91;1018838;29;20779;-71
2021/10/19 02:15:30;;;;;;;29.83;19.90;;;;;;;3.80;100.00;96628.94;1022957;28;20027;-72
2021/10/19 02:16:00;;;;;;;23.70;18.40;;;;;;;3.98;100.00;96659.50;1026681;28;20783;-72
2021/10/19 02:16:31;;;;;;;29.02;21.17;;;;;;;3.97;100.00;96650.94;1026964;28;20285;-72
2021/10/19 02:17:02;;;;;;;26.38;20.38;;;;;;;3.97;100.00;96650.94;1026950;28;20027;-72
2021/10/19 02:17:32;;;;;;;27.30;20.08;;;;;;;3.97;100.00;96650.94;1022798;28;20023;-72
2021/10/19 02:18:03;;;;;;;30.02;21.67;;;;;;;3.99;100.00;96653.31;1021791;29;20518;-72
2021/10/19 02:18:34;;;;;;;27.88;20.77;;;;;;;3.95;100.00;96647.72;1023169;28;20556;-72
2021/10/19 02:19:04;;;;;;;25.35;20.05;;;;;;;3.85;100.00;96639.53;1030885;28;20257;-73
2021/10/19 02:19:35;;;;;;;27.52;20.40;;;;;;;3.96;100.00;96643.34;1031142;28;20030;-73
2021/10/19 02:20:06;;;;;;;24.75;20.05;;;;;;;3.89;100.00;96634.72;1030452;28;20018;-71
2021/10/19 02:20:38;;;;;;;23.00;19.52;;;;;;;3.95;100.00;96647.72;1030731;28;20021;-72
2021/10/19 02:21:08;;;;;;;22.88;17.90;;;;;;;3.96;100.00;96643.34;1026844;28;20278;-73
2021/10/19 02:21:38;;;;;;;23.38;17.20;;;;;;;4.01;100.00;96646.94;1026863;28;20266;-72